Time;durP1;ratioP1;P1;durP2;ratioP2;P2;SDS_P1;SDS_P2;PMS_P1;PMS_P2;Temp;Humidity;BMP_temperature;BMP_pressure;BME280_temperature;BME280_humidity;BME280_pressure;Samples;Min_cycle;Max_cycle;Signal;HPM_P1;HPM_P2
2021/01/30 00:00:29;;;;;;;39.43;17.43;;;;;;;2.26;94.12;97680.81;5095190;28;20048;-75
2021/01/30 00:02:59;;;;;;;34.47;16.48;;;;;;;2.00;93.16;97647.28;5096353;28;20489;-75
2021/01/30 00:05:28;;;;;;;39.17;18.23;;;;;;;2.25;93.45;97684.19;5096554;28;20508;-74
2021/01/30 00:08:05;;;;;;;41.10;18.17;;;;;;;2.22;93.41;97689.22;5096002;28;20048;-74
2021/01/30 00:10:33;;;;;;;37.42;17.00;;;;;;;2.23;93.70;97680.81;5095271;28;20080;-73
2021/01/30 00:13:01;;;;;;;36.97;16.58;;;;;;;2.18;94.06;97685.03;5096038;28;20036;-73
2021/01/30 00:15:29;;;;;;;46.15;20.25;;;;;;;2.18;93.41;97682.50;5096076;28;20441;-73
2021/01/30 00:17:59;;;;;;;39.30;17.60;;;;;;;1.67;93.92;97602.03;5095931;28;20036;-73
2021/01/30 00:20:29;;;;;;;38.47;17.50;;;;;;;2.11;93.33;97685.88;5095985;28;20448;-72
2021/01/30 00:22:58;;;;;;;42.38;19.15;;;;;;;2.02;93.79;97675.78;5095948;28;20060;-72
2021/01/30 00:25:28;;;;;;;36.95;17.98;;;;;;;2.10;93.78;97691.72;5096163;28;20048;-72
2021/01/30 00:27:57;;;;;;;40.55;17.52;;;;;;;2.06;93.55;97687.53;5095828;28;20502;-72
2021/01/30 00:30:27;;;;;;;38.97;17.08;;;;;;;1.95;93.64;97671.59;5094597;28;20033;-71
2021/01/30 00:32:55;;;;;;;39.13;17.00;;;;;;;2.07;93.31;97699.25;5094582;28;20040;-72
2021/01/30 00:35:27;;;;;;;42.28;17.25;;;;;;;2.11;94.06;97692.56;5095666;28;20044;-72
2021/01/30 00:37:55;;;;;;;39.28;18.08;;;;;;;2.18;93.40;97702.66;5095520;28;20044;-72
2021/01/30 00:40:23;;;;;;;41.17;17.25;;;;;;;2.11;93.75;97705.16;5095816;28;20037;-72
2021/01/30 00:42:51;;;;;;;39.88;18.30;;;;;;;2.10;94.27;97704.31;5095527;28;20048;-72
2021/01/30 00:45:22;;;;;;;39.15;17.33;;;;;;;2.04;93.41;97699.25;5095446;28;20046;-71
2021/01/30 00:47:50;;;;;;;36.08;17.02;;;;;;;2.01;93.80;97709.34;5095470;28;20496;-72
2021/01/30 00:50:18;;;;;;;34.40;16.85;;;;;;;1.98;94.02;97710.16;5094134;28;20439;-72
2021/01/30 00:52:47;;;;;;;37.17;17.42;;;;;;;1.99;93.36;97711.00;5094103;28;20090;-72
2021/01/30 00:55:22;;;;;;;43.47;17.60;;;;;;;1.97;93.88;97710.16;5095273;28;20098;-72
2021/01/30 00:57:55;;;;;;;40.72;18.38;;;;;;;1.94;93.77;97710.16;5093974;28;20071;-72
2021/01/30 01:00:26;;;;;;;38.45;16.45;;;;;;;1.87;93.76;97706.78;5095401;28;20048;-72
2021/01/30 01:02:58;;;;;;;37.47;18.13;;;;;;;1.96;93.31;97705.97;5093962;28;20482;-72
2021/01/30 01:05:35;;;;;;;36.85;17.63;;;;;;;1.96;94.06;97711.00;5093897;28;20449;-72
2021/01/30 01:08:04;;;;;;;34.00;16.88;;;;;;;1.90;93.15;97714.34;5093882;28;20501;-72
2021/01/30 01:10:31;;;;;;;43.13;18.65;;;;;;;1.91;94.04;97707.63;5095080;28;20044;-72
2021/01/30 01:13:01;;;;;;;36.17;17.67;;;;;;;1.91;93.81;97715.19;5093782;28;20397;-72
2021/01/30 01:15:29;;;;;;;40.78;18.73;;;;;;;1.91;93.35;97712.66;5093566;28;20493;-72
2021/01/30 01:17:57;;;;;;;39.17;16.67;;;;;;;1.91;93.72;97712.66;5094984;28;20508;-72
2021/01/30 01:20:25;;;;;;;46.10;21.20;;;;;;;1.92;93.33;97719.41;5095017;28;20089;-73
2021/01/30 01:22:54;;;;;;;44.92;20.08;;;;;;;1.96;94.24;97718.56;5093401;28;20402;-72
2021/01/30 01:25:23;;;;;;;39.45;17.55;;;;;;;1.93;93.99;97711.00;5094702;28;20490;-72
2021/01/30 01:27:52;;;;;;;41.13;17.83;;;;;;;1.89;93.33;97714.34;5094828;28;20494;-72
2021/01/30 01:30:21;;;;;;;38.05;16.95;;;;;;;1.86;93.83;97699.25;5094670;28;20273;-72
2021/01/30 01:32:49;;;;;;;42.20;17.13;;;;;;;1.89;93.72;97709.31;5094643;28;20135;-72
2021/01/30 01:35:20;;;;;;;38.50;17.27;;;;;;;1.82;93.64;97700.09;5094748;28;20040;-72
2021/01/30 01:37:50;;;;;;;38.17;17.48;;;;;;;1.89;93.47;97710.16;5094504;28;20040;-72
2021/01/30 01:40:24;;;;;;;36.67;18.30;;;;;;;1.85;93.86;97707.63;5094473;28;20058;-72
2021/01/30 01:43:10;;;;;;;38.65;18.85;;;;;;;1.82;93.87;97710.16;5094449;28;20063;-72
2021/01/30 01:45:38;;;;;;;43.40;19.75;;;;;;;1.86;94.20;97706.78;5032301;28;20049;-72
2021/01/30 01:48:11;;;;;;;35.20;17.45;;;;;;;1.79;94.05;97717.69;5032215;28;20404;-72
2021/01/30 01:50:46;;;;;;;38.47;18.02;;;;;;;1.73;93.42;97712.63;5032352;28;20394;-72
2021/01/30 01:53:18;;;;;;;38.28;17.95;;;;;;;1.75;94.08;97713.50;5032287;28;20049;-72
2021/01/30 01:55:51;;;;;;;39.22;18.63;;;;;;;1.77;94.19;97711.81;5031994;28;20072;-72
2021/01/30 01:58:28;;;;;;;37.97;18.58;;;;;;;1.75;94.06;97701.72;5032206;28;20050;-72
2021/01/30 02:00:55;;;;;;;40.22;18.60;;;;;;;1.79;93.74;97707.63;5015727;28;20511;-72
2021/01/30 02:03:27;;;;;;;42.40;18.98;;;;;;;1.78;93.37;97716.00;5032096;28;20120;-72
2021/01/30 02:05:59;;;;;;;40.17;19.60;;;;;;;1.58;93.37;97690.00;5015815;28;20112;-72
2021/01/30 02:08:28;;;;;;;40.58;17.83;;;;;;;1.63;93.45;97710.94;5031661;28;20081;-72
2021/01/30 02:10:57;;;;;;;40.15;18.55;;;;;;;1.71;94.05;97714.28;5032074;28;20053;-72
2021/01/30 02:13:29;;;;;;;47.20;21.50;;;;;;;1.71;93.24;97719.31;5015221;28;20048;-72
2021/01/30 02:16:06;;;;;;;41.13;19.20;;;;;;;1.68;93.87;97711.81;5031905;28;20538;-72
2021/01/30 02:18:49;;;;;;;40.55;18.73;;;;;;;1.60;93.96;97709.25;5031654;28;20038;-72
2021/01/30 02:21:50;;;;;;;41.90;20.25;;;;;;;1.64;93.56;97695.00;5031703;28;20053;-72
2021/01/30 02:24:33;;;;;;;42.90;19.30;;;;;;;1.64;93.30;97702.56;5094100;28;20105;-72
2021/01/30 02:27:20;;;;;;;37.05;17.48;;;;;;;1.36;93.70;97681.56;5093838;28;20052;-72
2021/01/30 02:30:02;;;;;;;35.15;16.25;;;;;;;1.48;93.98;97708.38;5093705;28;20051;-72
2021/01/30 02:32:45;;;;;;;36.78;16.88;;;;;;;1.65;93.59;97709.28;5093322;28;20109;-72
2021/01/30 02:35:30;;;;;;;37.17;16.63;;;;;;;1.68;94.00;97699.22;5093721;28;20067;-72
2021/01/30 02:38:02;;;;;;;25.42;12.07;;;;;;;1.72;93.29;97704.25;5092532;28;20543;-72
2021/01/30 02:40:37;;;;;;;29.83;13.13;;;;;;;1.63;93.57;97666.50;5092527;28;20131;-72
2021/01/30 02:43:08;;;;;;;20.48;8.73;;;;;;;1.91;94.04;97697.59;5093585;28;20048;-72
2021/01/30 02:45:44;;;;;;;14.63;6.28;;;;;;;2.07;93.88;97683.31;5093592;28;20044;-72
2021/01/30 02:48:16;;;;;;;7.55;3.58;;;;;;;2.48;94.40;97692.56;5093933;28;20457;-72
2021/01/30 02:50:49;;;;;;;7.05;2.78;;;;;;;2.68;93.64;97690.84;5093533;28;20056;-72
2021/01/30 02:53:22;;;;;;;4.93;2.67;;;;;;;2.76;94.24;97684.97;5093842;28;20052;-72
2021/01/30 02:55:53;;;;;;;5.68;1.98;;;;;;;2.73;94.18;97684.09;5093492;28;20062;-72
2021/01/30 02:58:27;;;;;;;6.65;1.90;;;;;;;2.65;93.61;97690.00;5093433;28;20040;-72
2021/01/30 03:00:58;;;;;;;3.67;1.65;;;;;;;2.53;93.83;97693.38;5093447;28;20054;-73
2021/01/30 03:03:26;;;;;;;6.20;2.03;;;;;;;2.41;94.38;97695.06;5093676;28;20462;-72
2021/01/30 03:06:00;;;;;;;6.38;2.45;;;;;;;2.34;93.99;97683.34;5092195;28;20089;-72
2021/01/30 03:08:35;;;;;;;26.00;10.60;;;;;;;2.34;94.00;97683.34;5093168;28;20106;-72
2021/01/30 03:11:13;;;;;;;27.67;12.35;;;;;;;2.13;93.27;97663.22;5093646;28;20048;-72
2021/01/30 03:13:46;;;;;;;27.25;10.60;;;;;;;0.81;93.36;97454.59;5093517;28;20060;-72
2021/01/30 03:16:17;;;;;;;36.95;11.68;;;;;;;2.05;94.09;97685.84;5093404;28;20048;-72
2021/01/30 03:18:50;;;;;;;26.92;9.10;;;;;;;1.91;94.03;97695.06;5093229;28;20071;-72
2021/01/30 03:21:19;;;;;;;26.40;8.88;;;;;;;1.77;93.92;97694.22;5093627;28;20489;-71
2021/01/30 03:23:48;;;;;;;18.63;7.97;;;;;;;1.75;94.13;97693.38;5093201;28;20078;-71
2021/01/30 03:26:20;;;;;;;18.65;8.40;;;;;;;1.73;93.96;97698.38;5093241;28;20511;-72
2021/01/30 03:28:49;;;;;;;16.90;6.95;;;;;;;1.69;94.01;97698.38;5093190;28;20040;-71
2021/01/30 03:31:17;;;;;;;9.38;4.72;;;;;;;1.69;93.97;97700.88;5093166;28;20505;-71
2021/01/30 03:33:46;;;;;;;7.55;3.17;;;;;;;1.74;93.39;97699.22;5093109;28;20056;-71
2021/01/30 03:36:14;;;;;;;7.93;2.78;;;;;;;1.79;93.48;97698.41;5093106;28;20048;-71
2021/01/30 03:38:42;;;;;;;4.93;2.17;;;;;;;1.83;93.30;97696.72;5093245;28;20040;-71
2021/01/30 03:41:10;;;;;;;3.97;1.80;;;;;;;1.91;94.15;97692.56;5093073;28;20040;-71
2021/01/30 03:43:39;;;;;;;3.72;1.25;;;;;;;2.12;93.55;97701.78;5091897;28;20056;-71
2021/01/30 03:46:07;;;;;;;2.92;1.50;;;;;;;2.15;93.34;97700.13;5095228;28;20123;-71
2021/01/30 03:48:35;;;;;;;3.28;1.08;;;;;;;2.21;94.08;97705.13;5096637;28;20040;-71
2021/01/30 03:51:04;;;;;;;2.58;1.30;;;;;;;2.18;93.73;97692.56;5096511;28;20051;-71
2021/01/30 03:53:32;;;;;;;4.32;1.42;;;;;;;2.26;94.20;97698.44;5096460;28;20040;-71
2021/01/30 03:56:00;;;;;;;3.60;1.40;;;;;;;2.17;93.52;97690.88;5096754;28;20071;-71
2021/01/30 03:58:29;;;;;;;2.70;1.38;;;;;;;2.14;93.49;97695.91;5096239;28;20044;-71
2021/01/30 04:00:57;;;;;;;2.95;1.40;;;;;;;2.18;93.35;97692.56;5096342;28;20490;-71
2021/01/30 04:03:25;;;;;;;3.30;1.27;;;;;;;2.32;94.25;97703.47;5096345;28;20074;-71
2021/01/30 04:05:53;;;;;;;2.28;1.20;;;;;;;2.36;94.45;97697.59;5095380;28;20131;-71
2021/01/30 04:08:21;;;;;;;3.00;1.17;;;;;;;2.67;93.59;97704.28;5095997;28;20102;-72
2021/01/30 04:10:48;;;;;;;1.95;1.10;;;;;;;2.61;93.53;97694.22;5096211;28;20079;-72
2021/01/30 04:13:17;;;;;;;2.63;1.30;;;;;;;2.49;93.46;97696.75;5096073;28;20052;-72
2021/01/30 04:15:47;;;;;;;2.33;1.30;;;;;;;2.39;93.81;97696.75;5095865;28;20059;-72
2021/01/30 04:18:15;;;;;;;3.33;1.50;;;;;;;2.38;94.24;97690.88;5096009;28;20052;-72
2021/01/30 04:20:43;;;;;;;6.53;2.17;;;;;;;2.37;94.29;97698.44;5096212;28;20126;-71
2021/01/30 04:23:11;;;;;;;5.18;1.95;;;;;;;2.31;93.44;97696.75;5095888;28;20064;-72
2021/01/30 04:25:38;;;;;;;5.68;2.40;;;;;;;2.33;93.63;97697.59;5094665;28;20054;-71
2021/01/30 04:28:06;;;;;;;4.20;1.73;;;;;;;2.22;94.11;97674.13;5095856;28;20079;-71
2021/01/30 04:30:34;;;;;;;2.55;1.33;;;;;;;2.44;93.48;97700.09;5095812;28;20512;-71
2021/01/30 04:33:05;;;;;;;3.67;1.55;;;;;;;2.43;94.24;97693.38;5095938;28;20135;-71
2021/01/30 04:35:34;;;;;;;2.10;0.93;;;;;;;2.36;93.64;97697.59;5095692;28;20060;-71
2021/01/30 04:38:04;;;;;;;2.60;1.33;;;;;;;2.14;93.62;97675.78;5095599;28;20044;-72
2021/01/30 04:40:34;;;;;;;1.85;1.10;;;;;;;2.18;93.50;97686.72;5095495;28;20032;-72
2021/01/30 04:43:13;;;;;;;3.17;1.10;;;;;;;2.27;93.12;97687.53;5095539;28;20109;-72
2021/01/30 04:45:59;;;;;;;2.28;1.27;;;;;;;2.30;93.99;97696.78;5095538;28;20052;-71
2021/01/30 04:48:40;;;;;;;3.13;1.30;;;;;;;2.28;93.48;97699.25;5095511;28;20059;-71
2021/01/30 04:51:12;;;;;;;2.70;1.50;;;;;;;2.32;94.11;97700.97;5095449;28;20055;-72
2021/01/30 04:54:03;;;;;;;2.67;1.27;;;;;;;2.30;93.67;97712.72;5095562;28;20040;-72
2021/01/30 04:56:44;;;;;;;2.58;1.50;;;;;;;2.39;94.11;97715.22;5094848;28;20046;-72
2021/01/30 04:59:20;;;;;;;2.80;1.20;;;;;;;2.28;93.57;97718.56;5095237;28;20521;-72
2021/01/30 05:01:54;;;;;;;2.60;1.20;;;;;;;2.33;93.40;97705.13;5095128;28;20052;-71
2021/01/30 05:04:26;;;;;;;2.17;1.20;;;;;;;2.42;93.65;97712.72;5095124;28;20051;-70
2021/01/30 05:07:05;;;;;;;3.10;1.23;;;;;;;3.05;93.54;97710.88;5095091;28;20052;-72
2021/01/30 05:09:43;;;;;;;2.53;1.08;;;;;;;3.31;93.87;97719.22;5094903;28;20127;-71
2021/01/30 05:12:17;;;;;;;4.70;1.20;;;;;;;3.29;93.31;97720.88;5094947;28;20052;-72
2021/01/30 05:14:52;;;;;;;2.45;1.20;;;;;;;3.26;93.40;97731.00;5094900;28;20056;-71
2021/01/30 05:17:23;;;;;;;1.35;0.90;;;;;;;3.22;93.88;97730.16;5094974;28;20566;-70
2021/01/30 05:19:59;;;;;;;1.60;0.80;;;;;;;3.53;93.10;97725.00;5094881;28;20075;-71
2021/01/30 05:22:35;;;;;;;2.63;1.10;;;;;;;3.64;93.39;97725.78;5095119;28;20052;-71
2021/01/30 05:25:05;;;;;;;2.28;1.20;;;;;;;3.76;93.29;97726.56;5094755;28;20059;-70
2021/01/30 05:27:43;;;;;;;2.22;1.13;;;;;;;3.74;93.30;97729.94;5094698;28;20432;-71
2021/01/30 05:30:15;;;;;;;2.63;1.13;;;;;;;3.59;93.15;97730.00;5094674;28;20055;-71
2021/01/30 05:33:02;;;;;;;2.63;1.15;;;;;;;3.37;92.50;97729.25;5094589;28;20048;-72
2021/01/30 05:35:40;;;;;;;1.30;0.80;;;;;;;3.19;92.64;97730.16;5094868;28;20085;-72
2021/01/30 05:38:15;;;;;;;3.10;1.23;;;;;;;3.16;92.92;97719.28;5094705;28;20109;-71
2021/01/30 05:40:47;;;;;;;2.65;1.23;;;;;;;3.19;92.75;97726.81;5094424;28;20052;-72
2021/01/30 05:43:24;;;;;;;2.75;1.20;;;;;;;3.16;92.69;97726.84;5094340;28;20130;-73
2021/01/30 05:45:55;;;;;;;2.53;1.25;;;;;;;3.25;92.73;97707.47;5094325;28;20048;-73
2021/01/30 05:48:26;;;;;;;4.03;2.10;;;;;;;3.34;92.75;97724.22;5094582;28;20074;-72
2021/01/30 05:50:59;;;;;;;4.25;1.80;;;;;;;3.39;92.64;97712.44;5094295;28;20043;-71
2021/01/30 05:53:28;;;;;;;2.30;1.20;;;;;;;3.40;92.38;97714.13;5094156;28;20097;-72
2021/01/30 05:55:56;;;;;;;2.55;1.30;;;;;;;3.40;92.75;97714.13;5094435;28;20051;-71
2021/01/30 05:58:27;;;;;;;3.63;1.65;;;;;;;3.30;92.22;97707.44;5094334;28;20555;-73
2021/01/30 06:01:01;;;;;;;5.35;2.05;;;;;;;3.36;92.26;97702.38;5094121;28;20051;-72
2021/01/30 06:03:29;;;;;;;4.13;2.10;;;;;;;3.24;92.23;97712.50;5094093;28;20044;-71
2021/01/30 06:06:10;;;;;;;7.57;1.80;;;;;;;3.15;92.40;97715.06;5092886;28;20123;-72
2021/01/30 06:08:53;;;;;;;7.05;2.72;;;;;;;3.19;91.50;97721.78;5093045;28;20131;-72
2021/01/30 06:11:21;;;;;;;5.00;2.42;;;;;;;3.13;91.29;97721.78;5094361;28;20071;-72
2021/01/30 06:13:52;;;;;;;5.25;2.38;;;;;;;3.08;91.98;97720.97;5094189;28;20052;-71
2021/01/30 06:16:37;;;;;;;5.03;2.45;;;;;;;3.00;91.89;97732.75;5093953;28;20052;-72
2021/01/30 06:19:13;;;;;;;4.30;2.20;;;;;;;2.99;91.90;97731.91;5093852;28;20055;-72
2021/01/30 06:21:42;;;;;;;4.15;2.40;;;;;;;2.97;91.31;97707.56;5093855;28;20490;-72
2021/01/30 06:24:12;;;;;;;4.13;2.17;;;;;;;3.30;91.49;97722.56;5093836;28;20131;-72
2021/01/30 06:26:44;;;;;;;5.30;2.08;;;;;;;3.22;91.34;97709.16;5094045;28;20463;-72
2021/01/30 06:29:26;;;;;;;4.38;2.22;;;;;;;3.31;91.10;97734.34;5093741;28;20383;-72
2021/01/30 06:31:55;;;;;;;5.28;2.47;;;;;;;3.32;90.71;97720.88;5094028;28;20497;-72
2021/01/30 06:34:29;;;;;;;3.50;2.13;;;;;;;3.31;90.76;97729.31;5093730;28;20072;-72
2021/01/30 06:36:59;;;;;;;4.93;2.47;;;;;;;3.33;90.69;97717.53;5092799;28;20127;-72
2021/01/30 06:39:32;;;;;;;5.30;2.55;;;;;;;3.26;90.09;97725.97;5094199;28;20206;-72
2021/01/30 06:42:06;;;;;;;5.43;2.63;;;;;;;3.16;90.98;97725.16;5093658;28;20127;-70
2021/01/30 06:44:49;;;;;;;6.07;3.15;;;;;;;3.16;90.19;97731.88;5093518;28;20048;-72
2021/01/30 06:47:19;;;;;;;5.43;2.55;;;;;;;3.14;90.38;97736.06;5031819;28;20531;-72
2021/01/30 06:49:49;;;;;;;6.70;3.38;;;;;;;3.07;90.04;97726.88;5031332;28;20141;-71
2021/01/30 06:52:22;;;;;;;;;;;;;;;3.03;90.42;97727.69;5031188;28;20064;-73
2021/01/30 06:55:09;;;;;;;8.65;4.13;;;;;;;3.02;89.81;97731.91;5014892;28;19925;-72
2021/01/30 06:57:45;;;;;;;6.60;3.60;;;;;;;2.89;90.29;97714.28;5031330;28;20492;-73
2021/01/30 07:00:25;;;;;;;7.95;4.65;;;;;;;3.03;90.41;97738.63;5031204;28;20050;-72
2021/01/30 07:03:07;;;;;;;9.60;4.97;;;;;;;3.00;90.37;97732.75;5014770;28;20091;-73
2021/01/30 07:05:47;;;;;;;9.77;4.93;;;;;;;2.96;90.81;97726.03;5015351;28;20052;-72
2021/01/30 07:08:31;;;;;;;8.00;4.57;;;;;;;2.94;90.35;97727.72;5030960;28;20088;-72
2021/01/30 07:11:12;;;;;;;9.52;4.95;;;;;;;2.92;90.29;97724.38;5031216;28;20152;-72
2021/01/30 07:13:50;;;;;;;8.23;4.13;;;;;;;2.90;90.17;97716.00;5030834;28;20045;-73
2021/01/30 07:16:32;;;;;;;10.43;4.78;;;;;;;2.93;90.06;97714.28;5031267;28;20120;-73
2021/01/30 07:19:09;;;;;;;8.52;4.32;;;;;;;2.86;90.41;97704.22;5031897;28;20157;-72
2021/01/30 07:21:43;;;;;;;10.25;5.20;;;;;;;2.88;90.28;97707.59;5034904;28;20053;-72
2021/01/30 07:24:21;;;;;;;9.35;4.72;;;;;;;2.87;90.53;97704.25;5056703;28;20044;-72
2021/01/30 07:26:57;;;;;;;9.25;4.43;;;;;;;2.87;91.15;97706.75;5097019;28;20052;-71
2021/01/30 07:29:39;;;;;;;12.70;7.18;;;;;;;2.85;90.46;97708.44;5104649;28;20122;-71
2021/01/30 07:32:14;;;;;;;10.65;5.53;;;;;;;2.84;90.29;97706.75;5117272;27;20108;-71
2021/01/30 07:34:57;;;;;;;8.57;5.20;;;;;;;2.86;90.71;97709.25;5117249;28;20051;-71
2021/01/30 07:37:33;;;;;;;10.35;4.85;;;;;;;2.88;90.77;97708.41;5117167;28;20051;-72
2021/01/30 07:40:11;;;;;;;7.15;4.38;;;;;;;2.94;90.45;97712.59;5117072;28;20039;-71
2021/01/30 07:42:44;;;;;;;8.45;4.50;;;;;;;3.00;90.74;97702.53;5117066;28;20126;-72
2021/01/30 07:45:18;;;;;;;10.82;5.53;;;;;;;3.06;91.00;97702.50;5115769;28;20058;-71
2021/01/30 07:47:53;;;;;;;11.10;6.07;;;;;;;3.09;91.62;97707.53;5116994;28;20100;-72
2021/01/30 07:50:26;;;;;;;14.55;5.85;;;;;;;3.10;91.27;97710.03;5117044;28;20071;-70
2021/01/30 07:53:01;;;;;;;9.60;5.22;;;;;;;3.09;91.68;97702.50;5116896;28;20075;-71
2021/01/30 07:55:30;;;;;;;9.20;4.90;;;;;;;3.12;90.82;97707.53;5117239;28;20075;-71
2021/01/30 07:58:13;;;;;;;10.25;5.18;;;;;;;3.02;91.32;97690.75;5116729;28;20067;-70
2021/01/30 08:00:51;;;;;;;9.68;5.35;;;;;;;3.20;91.77;97705.81;5116564;28;20519;-71
2021/01/30 08:03:27;;;;;;;10.80;5.97;;;;;;;3.26;91.41;97700.75;5116718;28;20054;-72
2021/01/30 08:06:10;;;;;;;10.70;5.43;;;;;;;3.30;91.27;97708.28;5116604;28;20055;-70
2021/01/30 08:08:42;;;;;;;14.07;6.13;;;;;;;3.38;91.50;97701.53;5116315;28;20135;-74
2021/01/30 08:11:21;;;;;;;11.00;5.20;;;;;;;3.44;90.76;97707.38;5116645;28;20054;-72
2021/01/30 08:13:54;;;;;;;;;;;;;;;3.60;91.50;97707.28;5117042;28;20045;-71
2021/01/30 08:16:35;;;;;;;11.05;4.57;;;;;;;3.73;91.59;97708.91;5116576;28;19920;-71
2021/01/30 08:19:08;;;;;;;9.90;4.93;;;;;;;3.61;91.52;97667.78;5116306;28;20044;-71
2021/01/30 08:21:42;;;;;;;9.40;4.72;;;;;;;3.88;91.16;97702.94;5116821;28;20047;-73
2021/01/30 08:24:16;;;;;;;8.20;3.50;;;;;;;3.90;91.34;97707.13;5116498;28;20536;-72
2021/01/30 08:26:54;;;;;;;7.00;3.97;;;;;;;3.90;90.76;97711.34;5116463;28;20067;-72
2021/01/30 08:29:27;;;;;;;9.48;4.97;;;;;;;3.83;91.29;97710.56;5116368;28;20096;-72
2021/01/30 08:32:00;;;;;;;6.88;3.75;;;;;;;3.90;91.05;97699.56;5115336;28;20081;-72
2021/01/30 08:34:31;;;;;;;6.00;3.53;;;;;;;3.91;91.14;97703.75;5115343;28;20389;-72
2021/01/30 08:37:00;;;;;;;6.97;3.88;;;;;;;3.85;90.49;97693.72;5113464;28;20101;-72
2021/01/30 08:39:31;;;;;;;8.27;4.30;;;;;;;3.88;91.11;97698.75;5115278;28;20156;-71
2021/01/30 08:42:06;;;;;;;6.60;3.53;;;;;;;3.97;90.62;97698.69;5113157;28;20043;-72
2021/01/30 08:44:39;;;;;;;6.25;3.60;;;;;;;3.90;90.68;97694.53;5115194;28;20051;-72
2021/01/30 08:47:11;;;;;;;7.30;3.75;;;;;;;3.90;90.83;97697.06;5115256;28;20044;-72
2021/01/30 08:49:40;;;;;;;5.55;3.22;;;;;;;4.00;90.77;97698.66;5113056;28;20046;-73
2021/01/30 08:52:17;;;;;;;6.55;3.78;;;;;;;4.00;90.09;97696.16;5115321;28;20089;-72
2021/01/30 08:54:46;;;;;;;4.65;2.72;;;;;;;4.07;90.16;97686.84;5115737;28;20071;-72
2021/01/30 08:57:31;;;;;;;4.50;2.40;;;;;;;4.33;90.34;97689.16;5115662;28;20071;-73
2021/01/30 09:00:02;;;;;;;4.75;2.05;;;;;;;4.53;89.93;97687.31;5115367;28;20455;-72
2021/01/30 09:02:36;;;;;;;4.82;2.10;;;;;;;4.69;89.54;97683.78;5115576;28;20043;-72
2021/01/30 09:05:07;;;;;;;5.70;2.70;;;;;;;4.88;89.55;97692.00;5115647;28;20134;-72
2021/01/30 09:07:40;;;;;;;7.13;3.22;;;;;;;4.73;88.94;97667.72;5115409;28;20052;-73
2021/01/30 09:10:16;;;;;;;9.57;4.55;;;;;;;4.83;88.22;97689.53;5115274;28;20108;-73
2021/01/30 09:12:50;;;;;;;5.63;2.67;;;;;;;4.93;87.88;97686.03;5114464;28;20077;-73
2021/01/30 09:15:47;;;;;;;5.68;2.30;;;;;;;5.09;87.11;97682.50;5115385;28;20071;-73
2021/01/30 09:18:24;;;;;;;2.70;1.73;;;;;;;5.17;86.52;97685.78;5115164;28;20114;-73
2021/01/30 09:20:56;;;;;;;4.50;1.52;;;;;;;5.23;86.21;97680.63;5115185;28;20101;-73
2021/01/30 09:23:37;;;;;;;2.15;1.05;;;;;;;5.43;85.35;97682.94;5114233;28;20701;-73
2021/01/30 09:26:13;;;;;;;2.28;1.20;;;;;;;5.19;84.35;97623.38;5115093;28;20100;-73
2021/01/30 09:28:41;;;;;;;2.60;1.20;;;;;;;5.60;83.59;97680.19;5114849;28;20059;-73
2021/01/30 09:31:17;;;;;;;2.13;1.25;;;;;;;5.17;82.75;97594.75;5115058;28;20057;-73
2021/01/30 09:33:59;;;;;;;2.95;1.33;;;;;;;5.81;82.36;97687.47;5114951;28;20050;-73
2021/01/30 09:36:32;;;;;;;4.15;1.58;;;;;;;5.80;81.86;97683.28;5115223;28;20043;-73
2021/01/30 09:39:01;;;;;;;3.83;1.52;;;;;;;5.59;81.55;97668.41;5114821;28;20058;-73
2021/01/30 09:41:31;;;;;;;3.83;1.33;;;;;;;5.90;81.19;97679.78;5114738;28;20520;-73
2021/01/30 09:44:04;;;;;;;1.48;0.88;;;;;;;6.10;80.18;97685.38;5114980;28;20092;-73
2021/01/30 09:46:36;;;;;;;2.60;1.33;;;;;;;5.93;80.42;97670.44;5115067;28;20044;-72
2021/01/30 09:49:08;;;;;;;1.38;0.90;;;;;;;5.88;80.40;97684.88;5114713;28;20047;-72
2021/01/30 09:51:42;;;;;;;2.00;1.10;;;;;;;5.82;80.55;97681.56;5114620;28;20051;-71
2021/01/30 09:54:14;;;;;;;2.58;1.33;;;;;;;5.85;80.48;97681.56;5115086;28;20031;-72
2021/01/30 09:56:45;;;;;;;2.75;1.20;;;;;;;5.13;80.37;97532.47;5114681;28;20081;-73
2021/01/30 09:59:25;;;;;;;1.20;0.80;;;;;;;6.05;79.95;97674.47;5114480;28;20051;-72
2021/01/30 10:02:09;;;;;;;1.60;1.00;;;;;;;6.07;79.63;97657.56;5114436;28;20043;-73
2021/01/30 10:04:39;;;;;;;2.00;1.10;;;;;;;6.08;79.63;97659.25;5114714;28;20386;-73
2021/01/30 10:07:10;;;;;;;4.47;1.67;;;;;;;6.12;79.70;97650.75;5114159;28;20043;-72
2021/01/30 10:09:42;;;;;;;3.13;1.40;;;;;;;6.08;79.40;97639.00;5114191;28;20074;-70
2021/01/30 10:12:11;;;;;;;4.57;1.90;;;;;;;6.11;78.98;97656.69;5114281;28;20044;-70
2021/01/30 10:14:41;;;;;;;2.63;0.90;;;;;;;6.15;79.02;97660.81;5114133;27;20489;-70
2021/01/30 10:17:21;;;;;;;2.58;1.13;;;;;;;6.21;78.75;97653.16;5114272;28;20052;-71
2021/01/30 10:19:57;;;;;;;1.88;1.00;;;;;;;6.08;79.08;97652.50;5114045;28;20040;-71
2021/01/30 10:22:35;;;;;;;1.80;1.00;;;;;;;6.05;78.53;97651.69;5114139;28;20047;-72
2021/01/30 10:25:07;;;;;;;2.50;1.33;;;;;;;6.12;78.51;97655.81;5113905;28;20047;-72
2021/01/30 10:27:35;;;;;;;1.70;1.10;;;;;;;5.95;78.78;97638.34;5113954;28;20048;-72
2021/01/30 10:30:05;;;;;;;1.58;1.00;;;;;;;5.95;79.29;97662.84;5112765;28;20088;-73
2021/01/30 10:32:39;;;;;;;;;;;;;;;5.86;79.67;97655.38;5115001;28;20081;-71
2021/01/30 10:35:16;;;;;;;0.93;0.52;;;;;;;5.84;79.77;97654.53;5112712;28;19923;-72
2021/01/30 10:37:48;;;;;;;2.42;1.10;;;;;;;5.75;79.89;97654.66;5114246;28;20055;-72
2021/01/30 10:40:31;;;;;;;1.75;1.00;;;;;;;5.69;80.57;97658.13;5113898;28;20434;-73
2021/01/30 10:43:03;;;;;;;1.98;1.00;;;;;;;5.72;80.73;97659.75;5113934;28;20052;-71
2021/01/30 10:45:33;;;;;;;3.63;1.48;;;;;;;5.85;80.66;97651.19;5113874;28;20051;-71
2021/01/30 10:48:05;;;;;;;2.28;1.13;;;;;;;5.85;80.28;97651.19;5114081;28;20115;-71
2021/01/30 10:50:35;;;;;;;3.85;1.70;;;;;;;5.79;80.45;97646.16;5114158;28;20546;-72
2021/01/30 10:53:09;;;;;;;2.53;1.42;;;;;;;5.81;80.82;97650.34;5113885;28;20047;-71
2021/01/30 10:55:39;;;;;;;1.88;0.93;;;;;;;5.71;80.54;97632.81;5117262;28;20051;-72
2021/01/30 10:58:11;;;;;;;2.80;1.17;;;;;;;5.74;80.98;97658.03;5118176;27;20591;-72
2021/01/30 11:00:40;;;;;;;2.97;1.50;;;;;;;5.72;81.10;97659.75;5118140;28;20128;-71
2021/01/30 11:03:13;;;;;;;2.70;1.27;;;;;;;5.78;81.14;97644.50;5118201;28;20040;-71
2021/01/30 11:05:42;;;;;;;3.08;1.20;;;;;;;5.88;81.39;97653.66;5117944;28;20051;-72
2021/01/30 11:08:09;;;;;;;3.40;1.20;;;;;;;6.02;81.20;97651.78;5117685;28;20059;-71
2021/01/30 11:10:41;;;;;;;3.67;1.27;;;;;;;6.25;80.66;97647.16;5117547;28;20412;-71
2021/01/30 11:13:17;;;;;;;2.90;1.42;;;;;;;6.17;80.38;97622.84;5117761;28;20122;-72
2021/01/30 11:15:49;;;;;;;4.20;2.10;;;;;;;6.23;80.46;97632.84;5117575;28;20054;-72
2021/01/30 11:18:32;;;;;;;4.45;2.03;;;;;;;5.56;80.16;97519.19;5116597;28;20059;-72
2021/01/30 11:21:04;;;;;;;3.85;1.98;;;;;;;6.37;80.54;97641.91;5117749;28;20071;-72
2021/01/30 11:23:37;;;;;;;4.72;2.38;;;;;;;6.34;80.97;97636.88;5117840;28;20464;-71
2021/01/30 11:26:11;;;;;;;4.97;2.70;;;;;;;6.28;80.71;97639.53;5117425;28;20058;-71
2021/01/30 11:28:39;;;;;;;6.75;2.53;;;;;;;6.24;80.90;97624.41;5117433;28;20123;-71
2021/01/30 11:31:10;;;;;;;5.72;2.42;;;;;;;6.21;81.21;97630.34;5117234;28;20047;-72
2021/01/30 11:33:38;;;;;;;6.18;3.33;;;;;;;6.17;81.55;97626.19;5117348;28;20047;-72
2021/01/30 11:36:11;;;;;;;8.23;3.65;;;;;;;6.13;81.69;97627.09;5117163;28;20501;-71
2021/01/30 11:38:39;;;;;;;5.68;2.50;;;;;;;6.14;81.77;97628.78;5117169;28;20047;-72
2021/01/30 11:41:11;;;;;;;4.07;1.80;;;;;;;6.11;81.70;97626.28;5117079;28;20122;-72
2021/01/30 11:43:39;;;;;;;4.28;1.75;;;;;;;6.14;81.49;97628.78;5117006;28;20071;-71
2021/01/30 11:46:07;;;;;;;3.15;1.52;;;;;;;6.18;81.70;97619.44;5116943;28;20401;-71
2021/01/30 11:48:35;;;;;;;2.78;1.42;;;;;;;6.14;81.51;97623.72;5117223;28;20097;-72
2021/01/30 11:51:03;;;;;;;2.38;1.30;;;;;;;5.94;81.46;97580.16;5116869;28;20386;-71
2021/01/30 11:53:32;;;;;;;2.97;1.00;;;;;;;6.14;80.99;97593.34;5116874;28;20051;-71
2021/01/30 11:56:00;;;;;;;2.58;1.25;;;;;;;6.09;81.06;97569.78;5115623;28;20040;-71
2021/01/30 11:58:28;;;;;;;2.72;1.33;;;;;;;6.27;80.97;97589.72;5116798;28;20071;-71
2021/01/30 12:00:56;;;;;;;2.45;1.17;;;;;;;6.34;80.69;97586.22;5116648;28;20043;-72
2021/01/30 12:03:27;;;;;;;;;;;;;;;6.45;80.31;97599.53;5116990;28;20052;-71
2021/01/30 12:05:57;;;;;;;2.60;1.10;;;;;;;6.48;79.75;97609.59;5115545;27;19924;-71